createdAt,value
2023-02-18T00:01:22.392Z,71.10
2023-02-18T00:03:49.238Z,70.50
2023-02-18T00:06:24.508Z,70.50
2023-02-18T00:08:51.476Z,70.50
2023-02-18T00:11:19.142Z,71.30
2023-02-18T00:13:57.286Z,70.60
2023-02-18T00:16:24.728Z,70.70
2023-02-18T00:18:51.497Z,70.70
2023-02-18T00:21:18.262Z,70.70
2023-02-18T00:23:45.014Z,70.70
2023-02-18T00:26:14.235Z,70.50
2023-02-18T00:28:41.400Z,70.50
2023-02-18T00:31:12.347Z,70.60
2023-02-18T00:33:39.224Z,70.70
2023-02-18T00:36:13.640Z,70.80
2023-02-18T00:38:43.524Z,70.80
2023-02-18T00:41:10.300Z,70.70
2023-02-18T00:43:37.040Z,70.70
2023-02-18T00:46:03.971Z,70.90
2023-02-18T00:48:30.802Z,71.10
2023-02-18T00:50:57.557Z,70.90
2023-02-18T00:53:24.772Z,70.90
2023-02-18T00:55:51.486Z,70.90
2023-02-18T00:58:18.212Z,71.00
2023-02-18T01:00:45.167Z,70.90
2023-02-18T01:03:12.038Z,70.90
2023-02-18T01:05:39.121Z,70.80
2023-02-18T01:08:06.347Z,70.80
2023-02-18T01:10:33.356Z,71.10
2023-02-18T01:13:00.118Z,70.80
2023-02-18T01:15:26.929Z,71.60
2023-02-18T01:17:53.691Z,71.10
2023-02-18T01:20:20.484Z,71.20
2023-02-18T01:22:47.185Z,71.10
2023-02-18T01:25:13.986Z,71.20
2023-02-18T01:27:40.767Z,71.30
2023-02-18T01:30:08.844Z,71.10
2023-02-18T01:32:35.555Z,71.20
2023-02-18T01:35:03.482Z,71.20
2023-02-18T01:37:30.194Z,71.20
2023-02-18T01:39:57.064Z,71.20
2023-02-18T01:42:25.728Z,72.00
2023-02-18T01:44:52.588Z,71.30
2023-02-18T01:47:19.400Z,71.00
2023-02-18T01:49:48.429Z,71.00
2023-02-18T01:52:20.389Z,71.10
2023-02-18T01:54:55.853Z,71.20
2023-02-18T01:57:33.464Z,71.20
2023-02-18T02:00:04.230Z,71.30
2023-02-18T02:02:31.857Z,71.20
2023-02-18T02:04:58.610Z,71.30
2023-02-18T02:07:26.145Z,71.30
2023-02-18T02:09:53.354Z,71.40
2023-02-18T02:12:20.032Z,71.50
2023-02-18T02:15:01.290Z,71.40
2023-02-18T02:17:53.692Z,71.50
2023-02-18T02:20:45.467Z,71.40
2023-02-18T02:23:31.028Z,72.10
2023-02-18T02:26:25.523Z,71.30
2023-02-18T02:28:58.245Z,71.20
2023-02-18T02:31:30.504Z,71.20
2023-02-18T02:34:06.143Z,71.30
2023-02-18T02:36:38.870Z,71.40
2023-02-18T02:39:14.713Z,71.40
2023-02-18T02:41:43.996Z,72.10
2023-02-18T02:44:20.369Z,71.20
2023-02-18T02:46:48.856Z,71.20
2023-02-18T02:49:23.928Z,71.10
2023-02-18T02:52:27.972Z,71.10
2023-02-18T02:54:54.890Z,71.20
2023-02-18T02:57:24.714Z,71.20
2023-02-18T02:59:55.091Z,71.30
2023-02-18T03:02:34.839Z,71.30
2023-02-18T03:05:35.082Z,72.00
2023-02-18T03:08:19.076Z,71.30
2023-02-18T03:11:04.138Z,71.40
2023-02-18T03:13:37.834Z,71.30
2023-02-18T03:16:24.131Z,71.40
2023-02-18T03:18:57.453Z,71.10
2023-02-18T03:21:32.718Z,71.10
2023-02-18T03:23:59.420Z,71.10
2023-02-18T03:26:26.667Z,71.20
2023-02-18T03:28:53.656Z,72.00
2023-02-18T03:31:21.362Z,71.20
2023-02-18T03:34:00.150Z,71.20
2023-02-18T03:36:26.862Z,71.20
2023-02-18T03:39:01.511Z,70.90
2023-02-18T03:41:28.224Z,70.90
2023-02-18T03:44:00.429Z,71.10
2023-02-18T03:46:28.107Z,71.20
2023-02-18T03:48:54.902Z,71.90
2023-02-18T03:51:21.832Z,71.10
2023-02-18T03:53:48.647Z,71.00
2023-02-18T03:56:15.449Z,70.80
2023-02-18T03:58:42.194Z,70.80
2023-02-18T04:01:09.011Z,71.00
2023-02-18T04:03:35.804Z,71.00
2023-02-18T04:06:02.573Z,71.00
2023-02-18T04:08:29.344Z,70.90
2023-02-18T04:10:56.093Z,71.00
2023-02-18T04:13:22.860Z,71.10
2023-02-18T04:15:50.320Z,70.70
2023-02-18T04:18:17.100Z,70.70
2023-02-18T04:20:43.878Z,70.80
2023-02-18T04:23:10.661Z,70.70
2023-02-18T04:25:37.375Z,70.90
2023-02-18T04:28:04.489Z,70.80
2023-02-18T04:30:31.501Z,71.10
2023-02-18T04:32:58.300Z,70.70
2023-02-18T04:35:25.056Z,70.80
2023-02-18T04:37:51.826Z,70.60
2023-02-18T04:40:18.646Z,70.70
2023-02-18T04:42:45.363Z,70.70
2023-02-18T04:45:12.157Z,70.30
2023-02-18T04:47:38.976Z,70.40
2023-02-18T04:50:06.413Z,70.40
2023-02-18T04:52:33.131Z,70.40
2023-02-18T04:54:59.892Z,70.60
2023-02-18T04:57:26.710Z,70.50
2023-02-18T04:59:53.510Z,70.70
2023-02-18T05:02:20.256Z,70.60
2023-02-18T05:04:46.977Z,70.50
2023-02-18T05:07:13.750Z,70.50
2023-02-18T05:09:40.515Z,70.40
2023-02-18T05:12:07.511Z,70.30
2023-02-18T05:14:34.405Z,70.50
2023-02-18T05:17:02.498Z,70.50
2023-02-18T05:19:29.204Z,70.40
2023-02-18T05:21:55.994Z,70.30
2023-02-18T05:24:22.784Z,70.30
2023-02-18T05:26:49.463Z,70.30
2023-02-18T05:29:16.200Z,69.90
2023-02-18T05:31:43.097Z,69.90
2023-02-18T05:34:09.936Z,70.80
2023-02-18T05:36:36.690Z,70.10
2023-02-18T05:39:03.509Z,70.00
2023-02-18T05:41:30.266Z,70.20
2023-02-18T05:44:15.438Z,70.10
2023-02-18T05:46:42.308Z,70.10
2023-02-18T05:49:09.134Z,70.00
2023-02-18T05:51:35.822Z,70.20
2023-02-18T05:54:02.572Z,70.10
2023-02-18T05:56:29.321Z,70.60
2023-02-18T05:58:56.033Z,70.20
2023-02-18T06:01:22.854Z,70.20
2023-02-18T06:03:49.575Z,70.20
2023-02-18T06:06:16.384Z,70.00
2023-02-18T06:08:43.176Z,69.80
2023-02-18T06:11:09.920Z,69.80
2023-02-18T06:13:36.742Z,69.90
2023-02-18T06:16:03.625Z,69.90
2023-02-18T06:18:30.385Z,69.80
2023-02-18T06:20:57.182Z,69.90
2023-02-18T06:23:23.898Z,70.20
2023-02-18T06:25:50.623Z,70.30
2023-02-18T06:28:17.770Z,70.10
2023-02-18T06:30:45.346Z,70.00
2023-02-18T06:33:12.200Z,69.60
2023-02-18T06:35:39.001Z,69.80
2023-02-18T06:38:05.773Z,69.60
2023-02-18T06:40:32.494Z,69.60
2023-02-18T06:42:59.231Z,69.60
2023-02-18T06:45:25.953Z,69.80
2023-02-18T06:47:52.673Z,69.60
2023-02-18T06:50:19.704Z,69.80
2023-02-18T06:52:46.381Z,69.80
2023-02-18T06:55:13.183Z,69.80
2023-02-18T06:57:39.913Z,69.70
2023-02-18T07:00:07.352Z,69.70
2023-02-18T07:02:34.055Z,69.60
2023-02-18T07:05:00.833Z,69.70
2023-02-18T07:07:27.607Z,69.60
2023-02-18T07:09:54.361Z,70.10
2023-02-18T07:12:21.126Z,70.10
2023-02-18T07:14:47.899Z,70.10
2023-02-18T07:17:15.033Z,70.20
2023-02-18T07:19:41.791Z,70.40
2023-02-18T07:22:08.623Z,70.50
2023-02-18T07:24:35.308Z,70.30
2023-02-18T07:27:02.144Z,70.30
2023-02-18T07:29:28.901Z,70.00
2023-02-18T07:31:55.722Z,70.00
2023-02-18T07:34:22.580Z,69.90
2023-02-18T07:36:49.297Z,70.00
2023-02-18T07:39:18.232Z,70.10
2023-02-18T07:41:44.959Z,70.20
2023-02-18T07:44:11.722Z,70.20
2023-02-18T07:46:42.150Z,70.40
2023-02-18T07:49:09.255Z,70.80
2023-02-18T07:51:37.718Z,70.60
2023-02-18T07:54:04.571Z,70.40
2023-02-18T07:56:31.296Z,70.20
2023-02-18T07:58:58.104Z,70.40
2023-02-18T08:01:24.812Z,70.50
2023-02-18T08:03:51.683Z,70.80
2023-02-18T08:06:25.589Z,71.00
2023-02-18T08:08:52.353Z,71.30
2023-02-18T08:11:19.916Z,71.50
2023-02-18T08:13:48.277Z,71.50
2023-02-18T08:16:18.712Z,71.10
2023-02-18T08:18:45.547Z,71.70
2023-02-18T08:21:12.345Z,71.20
2023-02-18T08:23:39.121Z,71.40
2023-02-18T08:26:06.100Z,71.40
2023-02-18T08:28:33.342Z,71.40
2023-02-18T08:31:00.750Z,71.30
2023-02-18T08:33:27.511Z,71.20
2023-02-18T08:35:54.494Z,71.30
2023-02-18T08:38:21.903Z,71.30
2023-02-18T08:40:48.935Z,71.40
2023-02-18T08:43:16.144Z,71.70
2023-02-18T08:45:43.667Z,71.20
2023-02-18T08:48:17.812Z,71.30
2023-02-18T08:50:47.291Z,71.50
2023-02-18T08:53:14.160Z,71.40
2023-02-18T08:55:41.558Z,72.30
2023-02-18T08:58:08.559Z,71.60
2023-02-18T09:00:35.344Z,71.50
2023-02-18T09:03:02.128Z,71.50
2023-02-18T09:05:28.924Z,71.50
2023-02-18T09:07:55.866Z,71.30
2023-02-18T09:10:22.785Z,71.30
2023-02-18T09:12:49.562Z,71.20
2023-02-18T09:15:16.432Z,71.10
2023-02-18T09:17:43.251Z,71.30
2023-02-18T09:20:10.269Z,71.10
2023-02-18T09:22:36.989Z,71.10
2023-02-18T09:25:04.221Z,71.10
2023-02-18T09:27:31.243Z,70.80
2023-02-18T09:29:58.297Z,71.10
2023-02-18T09:32:34.297Z,71.20
2023-02-18T09:35:02.746Z,71.30
2023-02-18T09:37:29.524Z,71.20
2023-02-18T09:39:56.409Z,71.30
2023-02-18T09:42:28.143Z,71.50
2023-02-18T09:44:55.972Z,71.40
2023-02-18T09:47:33.593Z,71.40
2023-02-18T09:50:17.172Z,71.50
2023-02-18T09:52:43.951Z,71.50
2023-02-18T09:55:38.977Z,71.50
2023-02-18T09:58:13.428Z,71.60
2023-02-18T10:00:42.257Z,72.50
2023-02-18T10:03:13.712Z,71.50
2023-02-18T10:05:46.968Z,71.20
2023-02-18T10:08:21.982Z,71.60
2023-02-18T10:10:48.739Z,71.60
2023-02-18T10:13:17.769Z,71.70
2023-02-18T10:15:44.658Z,71.80
2023-02-18T10:18:25.731Z,72.00
2023-02-18T10:20:53.014Z,72.10
2023-02-18T10:23:20.339Z,72.40
2023-02-18T10:25:47.062Z,72.60
2023-02-18T10:28:13.858Z,72.80
2023-02-18T10:30:42.338Z,72.90
2023-02-18T10:33:33.487Z,72.70
2023-02-18T10:36:22.991Z,72.30
2023-02-18T10:39:15.738Z,72.00
2023-02-18T10:42:17.785Z,71.80
2023-02-18T10:45:03.238Z,71.40
2023-02-18T10:47:32.812Z,71.30
2023-02-18T10:50:01.226Z,71.30
2023-02-18T10:52:33.645Z,71.80
2023-02-18T10:55:05.699Z,71.90
2023-02-18T10:57:32.690Z,72.10
2023-02-18T10:59:59.763Z,72.10
2023-02-18T11:02:30.925Z,72.20
2023-02-18T11:04:58.941Z,72.10
2023-02-18T11:07:33.838Z,72.20
2023-02-18T11:10:15.285Z,72.30
2023-02-18T11:12:53.122Z,72.30
2023-02-18T11:15:26.318Z,72.20
2023-02-18T11:17:55.264Z,72.40
2023-02-18T11:20:28.404Z,72.30
2023-02-18T11:23:08.076Z,72.40
2023-02-18T11:25:36.245Z,72.40
2023-02-18T11:28:05.768Z,72.20
2023-02-18T11:30:40.145Z,72.20
2023-02-18T11:33:09.192Z,72.10
2023-02-18T11:35:35.938Z,71.80
2023-02-18T11:38:03.579Z,71.80
2023-02-18T11:40:31.512Z,71.80
2023-02-18T11:43:24.516Z,71.90
2023-02-18T11:45:51.244Z,71.90
2023-02-18T11:48:23.102Z,71.60
2023-02-18T11:50:53.566Z,71.40
2023-02-18T11:53:37.191Z,71.40
2023-02-18T11:56:06.371Z,71.30
2023-02-18T11:58:41.297Z,71.20
2023-02-18T12:01:29.584Z,70.10
2023-02-18T12:04:13.350Z,70.20
2023-02-18T12:06:52.109Z,70.10
2023-02-18T12:09:37.564Z,70.10
2023-02-18T12:12:28.837Z,70.10
2023-02-18T12:14:55.667Z,70.20
2023-02-18T12:17:45.292Z,69.50
2023-02-18T12:20:19.955Z,69.20
2023-02-18T12:23:02.967Z,69.10
2023-02-18T12:25:55.364Z,69.10
2023-02-18T12:28:40.245Z,69.10
2023-02-18T12:31:13.419Z,68.90
2023-02-18T12:33:56.578Z,68.40
2023-02-18T12:36:54.721Z,68.20
2023-02-18T12:39:53.525Z,67.80
2023-02-18T12:42:46.684Z,67.30
2023-02-18T12:45:48.686Z,66.90
2023-02-18T12:48:33.784Z,67.10
2023-02-18T12:51:07.308Z,66.20
2023-02-18T12:53:44.662Z,66.00
2023-02-18T12:56:41.174Z,65.80
2023-02-18T12:59:38.425Z,65.40
2023-02-18T13:02:11.173Z,65.30
2023-02-18T13:04:54.586Z,65.20
2023-02-18T13:08:03.733Z,64.80
2023-02-18T13:10:52.825Z,64.60
2023-02-18T13:13:24.711Z,64.50
2023-02-18T13:16:06.511Z,64.70
2023-02-18T13:19:03.393Z,64.80
2023-02-18T13:21:30.170Z,64.60
2023-02-18T13:24:25.858Z,64.40
2023-02-18T13:26:53.821Z,64.40
2023-02-18T13:29:31.177Z,64.30
2023-02-18T13:31:57.928Z,64.20
2023-02-18T13:34:39.556Z,63.90
2023-02-18T13:37:24.991Z,63.70
2023-02-18T13:39:56.112Z,63.40
2023-02-18T13:42:24.512Z,63.10
2023-02-18T13:44:57.319Z,63.30
2023-02-18T13:47:44.217Z,63.30
2023-02-18T13:50:27.411Z,63.10
2023-02-18T13:53:09.498Z,62.40
2023-02-18T13:55:36.276Z,62.20
2023-02-18T13:58:03.139Z,62.60
2023-02-18T14:00:36.933Z,62.20
2023-02-18T14:03:39.792Z,62.00
2023-02-18T14:06:19.915Z,62.00
2023-02-18T14:08:46.855Z,61.70
2023-02-18T14:11:13.894Z,61.70
2023-02-18T14:13:42.354Z,61.30
2023-02-18T14:16:09.798Z,61.10
2023-02-18T14:18:39.598Z,61.20
2023-02-18T14:21:12.335Z,61.30
2023-02-18T14:23:43.469Z,61.40
2023-02-18T14:26:12.813Z,61.40
2023-02-18T14:28:57.381Z,61.40
2023-02-18T14:31:34.217Z,61.00
2023-02-18T14:34:26.604Z,61.10
2023-02-18T14:37:12.928Z,61.10
2023-02-18T14:39:42.610Z,61.40
2023-02-18T14:42:22.590Z,60.80
2023-02-18T14:45:04.342Z,60.60
2023-02-18T14:47:37.245Z,60.50
2023-02-18T14:50:05.626Z,60.50
2023-02-18T14:52:34.395Z,60.60
2023-02-18T14:55:02.113Z,60.50
2023-02-18T14:57:44.791Z,59.50
2023-02-18T15:00:32.357Z,59.60
2023-02-18T15:03:00.422Z,59.40
2023-02-18T15:05:32.010Z,59.60
2023-02-18T15:08:03.818Z,58.80
2023-02-18T15:10:42.218Z,59.30
2023-02-18T15:13:21.321Z,59.20
2023-02-18T15:15:51.068Z,58.80
2023-02-18T15:18:47.521Z,58.90
2023-02-18T15:21:45.111Z,58.90
2023-02-18T15:24:30.196Z,58.40
2023-02-18T15:26:59.667Z,58.40
2023-02-18T15:29:28.088Z,57.90
2023-02-18T15:31:57.803Z,57.50
2023-02-18T15:34:24.673Z,58.10
2023-02-18T15:36:52.349Z,57.90
2023-02-18T15:39:19.183Z,57.90
2023-02-18T15:41:46.218Z,57.70
2023-02-18T15:44:18.999Z,57.70
2023-02-18T15:46:45.762Z,57.80
2023-02-18T15:49:14.120Z,57.90
2023-02-18T15:51:42.175Z,57.90
2023-02-18T15:54:15.727Z,57.40
2023-02-18T15:56:44.216Z,57.10
2023-02-18T15:59:32.423Z,57.20
2023-02-18T16:02:08.325Z,56.70
2023-02-18T16:04:38.561Z,56.70
2023-02-18T16:07:19.516Z,57.00
2023-02-18T16:09:47.132Z,56.40
2023-02-18T16:12:34.201Z,56.90
2023-02-18T16:15:00.982Z,56.70
2023-02-18T16:17:28.356Z,54.90
2023-02-18T16:20:05.540Z,55.60
2023-02-18T16:22:35.591Z,56.40
2023-02-18T16:25:13.343Z,56.60
2023-02-18T16:27:58.201Z,56.60
2023-02-18T16:30:26.606Z,56.30
2023-02-18T16:32:54.746Z,56.40
2023-02-18T16:35:22.442Z,56.70
2023-02-18T16:37:50.275Z,56.70
2023-02-18T16:40:31.399Z,56.70
2023-02-18T16:43:02.971Z,56.50
2023-02-18T16:45:38.152Z,56.60
2023-02-18T16:48:05.462Z,56.60
2023-02-18T16:50:32.962Z,56.80
2023-02-18T16:52:59.917Z,56.50
2023-02-18T16:55:30.488Z,56.50
2023-02-18T16:57:57.400Z,56.50
2023-02-18T17:00:24.212Z,56.70
2023-02-18T17:02:52.540Z,56.50
2023-02-18T17:05:27.485Z,56.20
2023-02-18T17:07:57.770Z,56.50
2023-02-18T17:10:24.509Z,56.60
2023-02-18T17:12:51.268Z,57.10
2023-02-18T17:15:30.659Z,56.40
2023-02-18T17:17:59.400Z,56.50
2023-02-18T17:20:29.621Z,57.00
2023-02-18T17:22:56.402Z,56.00
2023-02-18T17:25:29.848Z,57.10
2023-02-18T17:27:56.708Z,57.80
2023-02-18T17:30:23.578Z,57.20
2023-02-18T17:32:50.448Z,57.20
2023-02-18T17:35:18.691Z,57.40
2023-02-18T17:37:45.572Z,57.40
2023-02-18T17:40:23.215Z,57.60
2023-02-18T17:42:50.226Z,57.60
2023-02-18T17:45:21.833Z,57.60
2023-02-18T17:47:48.803Z,57.70
2023-02-18T17:50:16.023Z,57.50
2023-02-18T17:52:42.883Z,57.80
2023-02-18T17:55:18.272Z,57.60
2023-02-18T17:57:45.135Z,57.80
2023-02-18T18:00:17.020Z,57.70
2023-02-18T18:02:43.846Z,57.60
2023-02-18T18:05:19.052Z,57.70
2023-02-18T18:07:45.804Z,57.90
2023-02-18T18:10:12.725Z,58.00
2023-02-18T18:12:39.450Z,58.10
2023-02-18T18:15:26.131Z,58.00
2023-02-18T18:17:53.376Z,58.10
2023-02-18T18:20:20.280Z,58.00
2023-02-18T18:22:47.177Z,58.10
2023-02-18T18:25:44.244Z,58.20
2023-02-18T18:28:11.013Z,58.10
2023-02-18T18:30:42.341Z,58.20
2023-02-18T18:33:18.102Z,58.20
2023-02-18T18:35:46.052Z,58.30
2023-02-18T18:38:13.984Z,58.40
2023-02-18T18:40:40.869Z,58.30
2023-02-18T18:43:07.648Z,58.60
2023-02-18T18:45:37.234Z,58.70
2023-02-18T18:48:05.577Z,58.60
2023-02-18T18:50:34.051Z,58.70
2023-02-18T18:53:00.785Z,58.80
2023-02-18T18:55:35.785Z,58.70
2023-02-18T18:58:02.558Z,58.80
2023-02-18T19:00:31.416Z,58.70
2023-02-18T19:02:58.470Z,58.90
2023-02-18T19:05:27.901Z,58.90
2023-02-18T19:07:54.714Z,58.90
2023-02-18T19:10:21.461Z,58.90
2023-02-18T19:12:48.395Z,59.10
2023-02-18T19:15:17.861Z,59.30
2023-02-18T19:17:52.906Z,59.30
2023-02-18T19:20:27.843Z,59.20
2023-02-18T19:22:54.608Z,59.30
2023-02-18T19:25:21.699Z,59.30
2023-02-18T19:27:49.217Z,59.40
2023-02-18T19:30:23.017Z,59.30
2023-02-18T19:32:50.742Z,59.60
2023-02-18T19:35:17.594Z,59.50
2023-02-18T19:37:44.529Z,59.60
2023-02-18T19:40:16.668Z,59.90
2023-02-18T19:42:43.577Z,59.60
2023-02-18T19:45:10.405Z,60.00
2023-02-18T19:47:37.195Z,59.90
2023-02-18T19:50:04.426Z,60.10
2023-02-18T19:52:31.173Z,60.20
2023-02-18T19:54:58.009Z,60.80
2023-02-18T19:57:24.887Z,60.00
2023-02-18T19:59:51.737Z,59.80
2023-02-18T20:02:23.578Z,60.00
2023-02-18T20:04:50.531Z,60.00
2023-02-18T20:07:19.931Z,60.20
2023-02-18T20:09:46.709Z,60.20
2023-02-18T20:12:13.554Z,60.40
2023-02-18T20:14:40.672Z,60.40
2023-02-18T20:17:07.637Z,60.30
2023-02-18T20:19:34.867Z,60.70
2023-02-18T20:22:01.851Z,60.60
2023-02-18T20:24:29.639Z,60.80
2023-02-18T20:26:57.247Z,60.80
2023-02-18T20:29:25.562Z,60.80
2023-02-18T20:31:53.216Z,60.80
2023-02-18T20:34:20.381Z,60.80
2023-02-18T20:36:48.940Z,60.90
2023-02-18T20:39:16.610Z,61.00
2023-02-18T20:41:43.820Z,60.60
2023-02-18T20:44:10.776Z,60.80
2023-02-18T20:46:38.263Z,60.60
2023-02-18T20:49:06.696Z,60.90
2023-02-18T20:51:33.577Z,60.80
2023-02-18T20:54:00.536Z,60.90
2023-02-18T20:56:27.204Z,61.00
2023-02-18T20:58:54.000Z,61.30
2023-02-18T21:01:20.918Z,61.20
2023-02-18T21:03:48.004Z,61.50
2023-02-18T21:06:20.185Z,61.10
2023-02-18T21:08:48.233Z,61.60
2023-02-18T21:11:19.720Z,61.30
2023-02-18T21:13:47.367Z,61.50
2023-02-18T21:16:14.295Z,61.80
2023-02-18T21:18:41.160Z,61.70
2023-02-18T21:21:09.322Z,61.70
2023-02-18T21:23:36.506Z,61.70
2023-02-18T21:26:07.826Z,61.80
2023-02-18T21:28:34.561Z,61.80
2023-02-18T21:31:01.428Z,61.90
2023-02-18T21:33:28.231Z,61.70
2023-02-18T21:35:54.996Z,62.00
2023-02-18T21:38:21.789Z,61.80
2023-02-18T21:40:48.720Z,62.00
2023-02-18T21:43:15.565Z,61.90
2023-02-18T21:45:42.366Z,61.90
2023-02-18T21:48:27.333Z,62.10
2023-02-18T21:50:54.124Z,61.70
2023-02-18T21:53:20.850Z,62.20
2023-02-18T21:55:58.578Z,62.10
2023-02-18T21:58:29.854Z,62.00
2023-02-18T22:00:58.096Z,62.00
2023-02-18T22:03:24.999Z,62.20
2023-02-18T22:05:51.830Z,62.20
2023-02-18T22:08:18.605Z,62.30
2023-02-18T22:10:45.374Z,62.50
2023-02-18T22:13:12.225Z,62.40
2023-02-18T22:15:41.744Z,62.40
2023-02-18T22:18:08.791Z,62.80
2023-02-18T22:20:35.600Z,63.30
2023-02-18T22:23:02.377Z,62.20
2023-02-18T22:25:29.163Z,62.20
2023-02-18T22:27:55.913Z,62.50
2023-02-18T22:30:22.810Z,62.60
2023-02-18T22:32:49.549Z,62.80
2023-02-18T22:35:16.960Z,63.00
2023-02-18T22:37:43.792Z,63.30
2023-02-18T22:40:10.802Z,63.20
2023-02-18T22:42:37.567Z,63.00
2023-02-18T22:45:04.725Z,62.80
2023-02-18T22:47:31.398Z,62.90
2023-02-18T22:49:58.179Z,62.80
2023-02-18T22:52:24.944Z,62.90
2023-02-18T22:54:52.953Z,62.70
2023-02-18T22:57:20.714Z,62.80
2023-02-18T22:59:47.458Z,63.10
2023-02-18T23:02:14.229Z,63.20
2023-02-18T23:04:41.801Z,63.10
2023-02-18T23:07:08.618Z,63.60
2023-02-18T23:09:35.458Z,63.50
2023-02-18T23:12:02.236Z,63.00
2023-02-18T23:14:30.471Z,63.10
2023-02-18T23:17:14.122Z,63.30
2023-02-18T23:19:42.972Z,63.40
2023-02-18T23:22:10.548Z,63.30
2023-02-18T23:24:41.627Z,63.10
2023-02-18T23:27:09.405Z,63.70
2023-02-18T23:29:36.266Z,63.50
2023-02-18T23:32:03.002Z,63.50
2023-02-18T23:34:29.830Z,63.30
2023-02-18T23:36:56.691Z,63.40
2023-02-18T23:39:23.650Z,63.40
2023-02-18T23:41:50.688Z,63.80
2023-02-18T23:44:19.114Z,63.60
2023-02-18T23:46:45.878Z,63.80
2023-02-18T23:49:25.810Z,63.60
2023-02-18T23:51:53.634Z,63.50
2023-02-18T23:54:20.618Z,63.70
2023-02-18T23:56:47.535Z,63.70
2023-02-18T23:59:14.288Z,63.90
